Time;durP1;ratioP1;P1;durP2;ratioP2;P2;SDS_P1;SDS_P2;PMS_P1;PMS_P2;Temp;Humidity;BMP_temperature;BMP_pressure;BME280_temperature;BME280_humidity;BME280_pressure;Samples;Min_cycle;Max_cycle;Signal;HPM_P1;HPM_P2
2024/01/07 00:01:49;;;;;;;25.73;20.17;;;;;;;5.16;84.51;97657.44;4939635;29;20039;-73
2024/01/07 00:04:15;;;;;;;22.83;20.40;;;;;;;5.12;83.96;97657.06;4939894;29;20031;-73
2024/01/07 00:06:40;;;;;;;26.00;20.88;;;;;;;5.10;84.20;97651.13;4931215;29;20052;-74
2024/01/07 00:09:05;;;;;;;24.92;19.98;;;;;;;5.17;83.97;97661.72;4939937;29;20074;-73
2024/01/07 00:11:31;;;;;;;25.08;19.10;;;;;;;5.10;83.57;97648.47;4935756;29;20046;-75
2024/01/07 00:13:56;;;;;;;21.77;19.33;;;;;;;5.11;84.08;97655.41;4941245;29;20055;-76
2024/01/07 00:16:22;;;;;;;23.90;20.50;;;;;;;5.10;84.15;97659.13;4937065;29;20027;-74
2024/01/07 00:18:47;;;;;;;23.95;19.45;;;;;;;5.02;84.27;97656.75;4951011;29;20106;-73
2024/01/07 00:21:12;;;;;;;25.38;20.13;;;;;;;5.02;84.07;97651.41;4920161;29;20036;-73
2024/01/07 00:23:38;;;;;;;23.33;20.33;;;;;;;4.89;84.30;97632.91;4941429;29;20027;-73
2024/01/07 00:26:04;;;;;;;26.80;21.02;;;;;;;5.11;84.10;97660.75;4944344;29;20040;-73
2024/01/07 00:28:29;;;;;;;26.20;20.00;;;;;;;5.07;84.51;97658.75;4948878;29;20023;-73
2024/01/07 00:30:54;;;;;;;22.30;19.58;;;;;;;4.98;84.28;97649.41;4953233;28;20046;-73
2024/01/07 00:33:20;;;;;;;22.42;18.58;;;;;;;4.92;83.98;97635.13;4930558;28;20027;-73
2024/01/07 00:35:45;;;;;;;21.35;16.98;;;;;;;4.95;83.94;97653.34;4921018;29;20035;-73
2024/01/07 00:38:10;;;;;;;16.67;14.88;;;;;;;4.93;84.89;97650.06;4936836;29;20480;-73
2024/01/07 00:40:36;;;;;;;15.23;13.30;;;;;;;5.01;83.71;97665.00;4952676;29;20035;-73
2024/01/07 00:43:01;;;;;;;16.17;13.90;;;;;;;4.96;83.90;97665.66;4936142;29;20094;-73
2024/01/07 00:45:27;;;;;;;14.18;12.68;;;;;;;4.88;83.86;97660.59;4936542;29;20046;-73
2024/01/07 00:47:54;;;;;;;13.88;12.32;;;;;;;4.94;83.76;97665.06;4921119;29;20057;-73
2024/01/07 00:50:20;;;;;;;12.43;10.55;;;;;;;4.86;82.82;97673.34;4952715;29;20385;-73
2024/01/07 00:52:46;;;;;;;10.85;9.75;;;;;;;4.71;82.87;97660.34;4936723;29;20029;-73
2024/01/07 00:55:11;;;;;;;10.85;9.68;;;;;;;4.77;82.70;97674.66;4921064;29;20043;-73
2024/01/07 00:57:37;;;;;;;10.75;9.23;;;;;;;4.81;82.15;97691.84;4954721;29;20031;-73
2024/01/07 01:00:06;;;;;;;9.02;8.10;;;;;;;4.80;81.82;97684.91;4946669;29;20122;-74
2024/01/07 01:02:31;;;;;;;9.13;8.07;;;;;;;4.71;82.11;97670.22;4915350;29;20027;-74
2024/01/07 01:04:57;;;;;;;12.55;9.32;;;;;;;4.66;81.58;97672.72;4935621;29;20046;-73
2024/01/07 01:07:22;;;;;;;10.10;9.02;;;;;;;4.80;81.29;97691.06;4945545;29;20424;-74
2024/01/07 01:09:47;;;;;;;11.93;9.55;;;;;;;4.78;81.23;97693.09;4946964;29;20047;-74
2024/01/07 01:12:13;;;;;;;13.32;11.00;;;;;;;4.72;81.74;97702.00;4920390;29;20031;-74
2024/01/07 01:14:38;;;;;;;12.95;10.95;;;;;;;4.63;82.11;97684.66;4948821;28;20032;-74
2024/01/07 01:17:04;;;;;;;13.13;10.65;;;;;;;4.59;82.71;97671.97;4950611;29;20027;-73
2024/01/07 01:19:29;;;;;;;13.90;11.52;;;;;;;4.58;82.36;97681.81;4943687;29;20119;-73
2024/01/07 01:21:54;;;;;;;13.88;11.68;;;;;;;4.58;82.25;97692.50;4931930;29;20088;-74
2024/01/07 01:24:20;;;;;;;14.18;11.52;;;;;;;4.68;82.41;97708.81;4927533;29;20039;-74
2024/01/07 01:26:45;;;;;;;12.45;10.55;;;;;;;4.66;82.72;97713.56;4940512;29;20055;-73
2024/01/07 01:29:11;;;;;;;12.48;10.55;;;;;;;4.62;82.53;97719.53;4921296;29;20039;-74
2024/01/07 01:31:36;;;;;;;11.48;8.88;;;;;;;4.48;82.45;97702.81;4940050;29;20031;-74
2024/01/07 01:34:02;;;;;;;12.38;9.75;;;;;;;4.50;81.93;97705.28;4942731;28;20488;-73
2024/01/07 01:36:27;;;;;;;10.13;9.13;;;;;;;4.42;81.78;97700.22;4930807;29;20046;-75
2024/01/07 01:38:52;;;;;;;11.45;9.38;;;;;;;4.53;81.29;97710.16;4933796;29;20044;-74
2024/01/07 01:41:18;;;;;;;9.93;7.85;;;;;;;4.35;81.52;97708.28;4935920;29;20031;-74
2024/01/07 01:43:43;;;;;;;10.93;8.88;;;;;;;4.37;81.64;97719.53;4930791;29;20038;-74
2024/01/07 01:46:08;;;;;;;12.60;9.85;;;;;;;4.36;80.98;97722.41;4927063;29;20027;-74
2024/01/07 01:48:35;;;;;;;10.80;8.10;;;;;;;4.31;81.79;97723.06;4952933;29;20039;-73
2024/01/07 01:51:01;;;;;;;11.02;8.80;;;;;;;4.22;80.89;97702.22;4919977;29;20030;-74
2024/01/07 01:53:27;;;;;;;11.27;10.05;;;;;;;4.37;80.99;97722.19;4935651;29;20035;-74
2024/01/07 01:55:54;;;;;;;10.35;9.07;;;;;;;4.31;81.20;97715.06;4919708;29;20470;-73
2024/01/07 01:58:20;;;;;;;12.32;9.25;;;;;;;4.37;81.09;97718.69;4916547;29;20036;-74
2024/01/07 02:00:45;;;;;;;13.00;10.57;;;;;;;4.36;81.04;97722.41;4918579;29;20396;-73
2024/01/07 02:03:11;;;;;;;11.07;9.77;;;;;;;4.32;81.24;97723.91;4935058;29;20439;-74
2024/01/07 02:05:36;;;;;;;11.00;9.00;;;;;;;4.27;80.74;97721.06;4916367;29;20110;-73
2024/01/07 02:08:02;;;;;;;10.20;9.10;;;;;;;4.19;80.82;97704.28;4934263;29;20044;-73
2024/01/07 02:10:34;;;;;;;10.05;8.90;;;;;;;4.19;81.14;97704.28;4920130;29;20114;-72
2024/01/07 02:13:00;;;;;;;11.63;9.45;;;;;;;4.29;80.61;97719.00;4935480;29;20036;-72
2024/01/07 02:15:25;;;;;;;11.95;10.40;;;;;;;4.31;81.43;97719.56;4913696;29;20094;-72
2024/01/07 02:17:50;;;;;;;13.98;10.82;;;;;;;4.10;81.60;97705.59;4951029;28;20049;-73
2024/01/07 02:20:16;;;;;;;13.55;11.10;;;;;;;4.16;81.25;97720.69;4931883;29;20567;-74
2024/01/07 02:22:41;;;;;;;12.82;10.88;;;;;;;4.15;82.16;97724.38;4915885;29;20044;-74
2024/01/07 02:25:08;;;;;;;11.20;9.68;;;;;;;4.10;81.34;97718.91;4941737;28;20039;-74
2024/01/07 02:27:33;;;;;;;11.63;10.02;;;;;;;4.04;81.81;97710.94;4935399;29;20047;-73
2024/01/07 02:29:59;;;;;;;12.73;10.05;;;;;;;4.14;81.19;97722.78;4951007;28;20038;-74
2024/01/07 02:32:24;;;;;;;12.18;10.13;;;;;;;4.15;81.35;97734.25;4935405;29;20439;-73
2024/01/07 02:34:50;;;;;;;12.02;10.10;;;;;;;4.16;81.44;97731.38;4950365;28;20116;-73
2024/01/07 02:37:15;;;;;;;12.77;11.27;;;;;;;4.15;81.46;97735.03;4941746;29;20451;-74
2024/01/07 02:39:40;;;;;;;14.40;11.60;;;;;;;4.16;81.51;97736.69;4935302;29;20062;-73
2024/01/07 02:42:06;;;;;;;12.65;11.15;;;;;;;4.19;81.66;97730.94;4953088;28;20164;-73
2024/01/07 02:44:31;;;;;;;13.65;11.60;;;;;;;4.17;82.03;97743.66;4945070;29;20110;-73
2024/01/07 02:46:56;;;;;;;13.00;10.73;;;;;;;4.19;80.93;97741.59;4907993;29;20036;-73
2024/01/07 02:49:22;;;;;;;12.05;10.75;;;;;;;4.04;80.91;97709.09;4935088;29;20031;-73
2024/01/07 02:51:49;;;;;;;13.35;11.30;;;;;;;4.17;81.53;97735.66;4948052;29;20039;-72
2024/01/07 02:54:15;;;;;;;13.57;11.20;;;;;;;4.18;81.68;97742.63;4944607;28;20036;-73
2024/01/07 02:56:40;;;;;;;14.38;11.85;;;;;;;4.15;81.62;97735.03;4933612;29;20039;-73
2024/01/07 02:59:06;;;;;;;14.65;12.23;;;;;;;4.04;81.66;97734.91;4928020;29;20425;-73
2024/01/07 03:01:32;;;;;;;12.98;11.48;;;;;;;4.03;81.77;97728.78;4946854;29;20122;-72
2024/01/07 03:03:57;;;;;;;15.35;12.45;;;;;;;3.92;81.92;97734.00;4949727;28;20094;-71
2024/01/07 03:06:26;;;;;;;13.75;11.95;;;;;;;4.01;81.12;97724.72;4935927;29;20062;-73
2024/01/07 03:08:51;;;;;;;15.95;12.60;;;;;;;3.95;81.92;97729.03;4955543;29;20031;-72
2024/01/07 03:11:17;;;;;;;14.90;12.23;;;;;;;3.97;81.81;97748.28;4954452;29;20058;-72
2024/01/07 03:13:42;;;;;;;16.30;13.10;;;;;;;3.99;81.81;97751.53;4955398;28;20395;-72
2024/01/07 03:16:07;;;;;;;15.48;11.93;;;;;;;3.91;81.90;97754.47;4936356;29;20043;-73
2024/01/07 03:18:33;;;;;;;15.52;11.98;;;;;;;3.87;81.62;97763.94;4954043;29;20058;-73
2024/01/07 03:20:58;;;;;;;14.15;11.63;;;;;;;3.96;81.48;97752.00;4947519;29;20047;-73
2024/01/07 03:23:24;;;;;;;16.27;12.57;;;;;;;3.87;82.02;97758.59;4954150;29;20051;-73
2024/01/07 03:25:49;;;;;;;14.55;12.65;;;;;;;3.80;81.50;97752.50;4955255;29;20043;-73
2024/01/07 03:28:15;;;;;;;15.93;12.75;;;;;;;3.86;81.44;97767.59;4950112;29;20042;-73
2024/01/07 03:30:40;;;;;;;15.68;11.82;;;;;;;3.79;81.62;97766.81;4935218;29;20042;-72
2024/01/07 03:33:06;;;;;;;14.93;12.88;;;;;;;3.75;81.63;97770.94;4947718;28;20028;-72
2024/01/07 03:35:31;;;;;;;15.18;12.30;;;;;;;3.76;81.66;97767.22;4953390;29;20031;-72
2024/01/07 03:37:56;;;;;;;14.27;12.23;;;;;;;3.82;81.17;97773.56;4938080;29;20031;-72
2024/01/07 03:40:22;;;;;;;15.10;12.27;;;;;;;3.76;81.25;97783.22;4948915;29;20125;-72
2024/01/07 03:42:47;;;;;;;16.08;12.13;;;;;;;3.61;80.78;97764.03;4952237;29;20480;-72
2024/01/07 03:45:13;;;;;;;14.55;12.18;;;;;;;3.50;80.80;97756.72;4937849;29;20035;-75
2024/01/07 03:47:38;;;;;;;17.25;12.98;;;;;;;3.63;80.71;97782.44;4920445;29;20475;-75
2024/01/07 03:50:04;;;;;;;15.18;12.80;;;;;;;3.53;80.45;97771.41;4955380;29;20097;-77
2024/01/07 03:52:29;;;;;;;18.13;13.15;;;;;;;3.53;80.89;97782.06;4951303;29;20042;-75
2024/01/07 03:54:55;;;;;;;15.23;12.68;;;;;;;3.42;80.75;97770.25;4959964;28;20119;-75
2024/01/07 03:57:20;;;;;;;15.02;12.00;;;;;;;3.43;80.76;97774.56;4951443;29;20024;-74
2024/01/07 03:59:46;;;;;;;14.82;12.43;;;;;;;3.54;80.65;97795.19;4928276;29;20046;-73
2024/01/07 04:02:11;;;;;;;14.80;12.23;;;;;;;3.32;81.19;97773.34;4925167;29;20031;-73
2024/01/07 04:04:37;;;;;;;15.15;12.80;;;;;;;3.49;81.03;97792.31;4937758;29;20047;-74
2024/01/07 04:07:02;;;;;;;16.85;13.02;;;;;;;3.45;80.75;97785.81;4948847;29;20086;-74
2024/01/07 04:09:28;;;;;;;15.70;12.82;;;;;;;3.49;81.02;97802.97;4952251;29;20503;-74
2024/01/07 04:11:53;;;;;;;15.07;13.00;;;;;;;3.34;80.97;97789.09;4936146;29;20085;-73
2024/01/07 04:14:18;;;;;;;12.07;10.27;;;;;;;3.47;80.88;97810.34;4935967;29;20046;-74
2024/01/07 04:16:44;;;;;;;12.15;9.68;;;;;;;3.32;80.13;97789.31;4944176;29;20139;-74
2024/01/07 04:19:09;;;;;;;10.55;9.40;;;;;;;3.33;80.12;97808.75;4936538;29;20118;-74
2024/01/07 04:21:35;;;;;;;10.63;8.90;;;;;;;3.21;79.56;97810.41;4937685;29;20484;-74
2024/01/07 04:24:01;;;;;;;10.15;9.13;;;;;;;3.04;80.24;97799.38;4928740;29;20044;-74
2024/01/07 04:26:26;;;;;;;10.77;9.30;;;;;;;3.02;79.85;97797.94;4913043;29;20035;-74
2024/01/07 04:28:52;;;;;;;11.90;9.55;;;;;;;3.02;80.36;97805.94;4930709;28;20043;-74
2024/01/07 04:31:17;;;;;;;11.02;9.70;;;;;;;3.01;79.88;97820.25;4937514;29;20054;-74
2024/01/07 04:33:42;;;;;;;12.50;10.05;;;;;;;3.05;80.62;97826.81;4929876;29;20095;-74
2024/01/07 04:36:08;;;;;;;12.20;9.60;;;;;;;2.87;79.95;97800.03;4920761;29;20122;-73
2024/01/07 04:38:34;;;;;;;13.85;10.23;;;;;;;2.84;79.46;97808.41;4946404;29;20035;-74
2024/01/07 04:40:59;;;;;;;14.98;10.48;;;;;;;2.76;79.53;97807.56;4929329;29;20147;-74
2024/01/07 04:43:25;;;;;;;12.65;10.48;;;;;;;2.85;80.03;97820.69;4935497;29;20418;-74
2024/01/07 04:45:50;;;;;;;12.75;10.73;;;;;;;2.87;79.58;97845.22;4934500;29;20130;-74
2024/01/07 04:48:15;;;;;;;13.23;10.55;;;;;;;2.83;79.17;97838.66;4929392;29;20066;-74
2024/01/07 04:50:44;;;;;;;12.27;10.27;;;;;;;2.89;79.46;97837.84;4937228;29;20031;-74
2024/01/07 04:53:09;;;;;;;13.25;11.07;;;;;;;2.89;79.86;97853.81;4952463;29;20043;-74
2024/01/07 04:55:35;;;;;;;13.57;10.40;;;;;;;2.74;79.38;97836.22;4938434;29;20099;-74
2024/01/07 04:58:01;;;;;;;14.60;11.07;;;;;;;2.87;79.42;97847.88;4949867;29;20492;-74
2024/01/07 05:00:26;;;;;;;11.35;9.85;;;;;;;2.89;79.47;97857.28;4951428;29;20031;-74
2024/01/07 05:02:52;;;;;;;12.50;10.65;;;;;;;2.93;79.47;97860.34;4952940;29;20043;-74
2024/01/07 05:05:17;;;;;;;13.13;10.82;;;;;;;2.93;79.03;97860.34;4949611;28;20498;-74
2024/01/07 05:07:43;;;;;;;15.38;12.23;;;;;;;2.84;78.90;97846.44;4953829;28;20039;-74
2024/01/07 05:10:08;;;;;;;14.88;11.82;;;;;;;2.78;79.04;97848.06;4936689;29;20130;-74
2024/01/07 05:12:33;;;;;;;14.07;11.63;;;;;;;2.61;79.27;97830.88;4952791;29;20050;-74
2024/01/07 05:14:59;;;;;;;14.50;12.07;;;;;;;2.86;79.32;97870.16;4936434;29;20049;-74
2024/01/07 05:17:25;;;;;;;15.48;12.23;;;;;;;2.66;79.67;97830.28;4935669;29;20102;-74
2024/01/07 05:19:50;;;;;;;15.70;12.65;;;;;;;2.87;79.15;97871.81;4936452;29;20527;-73
2024/01/07 05:22:15;;;;;;;14.50;12.85;;;;;;;2.65;79.43;97864.03;4953619;29;20145;-76
2024/01/07 05:24:41;;;;;;;14.23;11.93;;;;;;;2.52;79.50;97850.69;4929567;29;20520;-74
2024/01/07 05:27:06;;;;;;;15.35;13.18;;;;;;;2.75;79.33;97879.56;4947596;29;20073;-74
2024/01/07 05:29:34;;;;;;;15.68;12.40;;;;;;;2.59;79.32;97853.38;4934077;29;20019;-74
2024/01/07 05:32:01;;;;;;;15.82;12.00;;;;;;;2.63;79.39;97868.72;4949733;29;20035;-73
2024/01/07 05:34:27;;;;;;;15.02;11.63;;;;;;;2.67;79.34;97882.41;4926755;29;20062;-73
2024/01/07 05:36:52;;;;;;;15.20;11.90;;;;;;;2.80;79.58;97893.88;4949691;29;20147;-74
2024/01/07 05:39:18;;;;;;;15.23;12.63;;;;;;;2.59;79.55;97875.44;4936408;29;20498;-75
2024/01/07 05:41:43;;;;;;;15.50;12.70;;;;;;;2.71;79.37;97900.41;4952391;29;20044;-74
2024/01/07 05:44:09;;;;;;;15.52;13.13;;;;;;;2.76;79.06;97897.16;4931851;29;20039;-75
2024/01/07 05:46:38;;;;;;;15.65;13.38;;;;;;;2.62;79.55;97890.16;4929013;29;20043;-75
2024/01/07 05:49:03;;;;;;;16.35;12.77;;;;;;;2.74;79.82;97905.34;4928319;29;20479;-74
2024/01/07 05:51:29;;;;;;;16.60;13.73;;;;;;;2.59;79.69;97886.06;4953309;29;20054;-76
2024/01/07 05:53:54;;;;;;;17.67;14.25;;;;;;;2.61;80.02;97894.66;4935973;29;20027;-75
2024/01/07 05:56:19;;;;;;;16.58;14.02;;;;;;;2.65;79.40;97911.88;4936793;29;20715;-75
2024/01/07 05:58:45;;;;;;;16.05;13.70;;;;;;;2.69;80.05;97913.09;4945414;29;20019;-73
2024/01/07 06:01:10;;;;;;;16.90;13.93;;;;;;;2.67;80.03;97909.00;4926077;29;20403;-74
2024/01/07 06:03:36;;;;;;;17.70;14.25;;;;;;;2.59;80.22;97902.03;4948945;28;20031;-72
2024/01/07 06:06:01;;;;;;;17.63;14.55;;;;;;;2.67;79.50;97915.13;4952136;29;20407;-73
2024/01/07 06:08:26;;;;;;;17.30;13.80;;;;;;;2.61;79.71;97920.44;4952666;29;20479;-73
2024/01/07 06:10:52;;;;;;;17.13;13.82;;;;;;;2.57;80.13;97924.50;4948957;29;20039;-73
2024/01/07 06:13:18;;;;;;;20.48;14.75;;;;;;;2.56;78.86;97925.53;4935069;28;20695;-74
2024/01/07 06:15:43;;;;;;;18.65;13.80;;;;;;;2.52;79.82;97926.97;4943676;29;20028;-73
2024/01/07 06:18:08;;;;;;;15.77;13.32;;;;;;;2.58;79.91;97926.16;4953012;29;20039;-74
2024/01/07 06:20:34;;;;;;;16.00;13.40;;;;;;;2.39;79.05;97906.47;4919789;29;20094;-72
2024/01/07 06:22:59;;;;;;;16.77;13.40;;;;;;;2.53;79.01;97929.41;4947326;29;20495;-73
2024/01/07 06:25:26;;;;;;;16.48;13.90;;;;;;;2.51;79.16;97920.81;4935475;29;20042;-74
2024/01/07 06:27:51;;;;;;;18.30;14.80;;;;;;;2.59;78.74;97928.59;4927887;29;20062;-72
2024/01/07 06:30:19;;;;;;;15.93;13.00;;;;;;;2.61;78.72;97931.06;4952974;28;20122;-72
2024/01/07 06:32:44;;;;;;;19.65;15.13;;;;;;;2.67;79.15;97939.06;4929506;29;20031;-72
2024/01/07 06:35:09;;;;;;;17.85;15.55;;;;;;;2.62;79.30;97948.66;4951828;28;20027;-72
2024/01/07 06:37:35;;;;;;;18.65;14.60;;;;;;;2.53;79.34;97934.72;4930024;28;20836;-73
2024/01/07 06:40:00;;;;;;;16.92;14.32;;;;;;;2.62;78.89;97949.47;4933783;28;20042;-73
2024/01/07 06:42:26;;;;;;;17.55;14.60;;;;;;;2.54;79.25;97952.31;4931147;29;20506;-73
2024/01/07 06:44:52;;;;;;;17.70;14.25;;;;;;;2.59;78.70;97938.44;4924194;29;20035;-73
2024/01/07 06:47:17;;;;;;;15.02;13.43;;;;;;;2.47;78.66;97945.34;4947789;29;20027;-73
2024/01/07 06:49:42;;;;;;;15.85;14.10;;;;;;;2.59;78.23;97955.19;4937477;29;20066;-73
2024/01/07 06:52:08;;;;;;;16.48;13.52;;;;;;;2.35;78.13;97953.06;4943680;29;21278;-73
2024/01/07 06:54:33;;;;;;;14.93;12.73;;;;;;;2.46;77.57;97967.59;4927253;29;20564;-73
2024/01/07 06:56:58;;;;;;;16.15;13.75;;;;;;;2.35;77.46;97974.31;4951660;29;20062;-72
2024/01/07 06:59:24;;;;;;;15.93;13.55;;;;;;;2.27;77.39;97953.22;4932009;29;20483;-73
2024/01/07 07:01:49;;;;;;;15.32;13.30;;;;;;;2.39;77.32;97980.03;4953632;29;20023;-73
2024/01/07 07:04:15;;;;;;;16.42;14.35;;;;;;;2.36;77.65;97986.56;4954079;29;20442;-73
2024/01/07 07:06:40;;;;;;;14.38;12.82;;;;;;;2.39;77.15;97980.03;4933682;29;20504;-75
2024/01/07 07:09:05;;;;;;;16.83;14.52;;;;;;;2.36;77.36;97961.84;4930099;29;20035;-77
2024/01/07 07:11:32;;;;;;;16.35;14.07;;;;;;;2.37;77.37;97988.22;4939176;29;20050;-76
2024/01/07 07:13:57;;;;;;;15.13;13.52;;;;;;;2.41;77.29;97994.78;4955547;29;20043;-74
2024/01/07 07:16:23;;;;;;;15.48;13.65;;;;;;;2.35;77.17;97987.59;4947325;29;20094;-73
2024/01/07 07:18:48;;;;;;;15.32;13.73;;;;;;;2.42;77.14;97991.13;4954263;29;20035;-73
2024/01/07 07:21:13;;;;;;;17.65;13.45;;;;;;;2.31;77.28;97989.00;4938136;29;20534;-74
2024/01/07 07:23:39;;;;;;;15.35;13.68;;;;;;;2.28;77.37;97989.41;4955278;29;20047;-74
2024/01/07 07:26:04;;;;;;;15.20;13.55;;;;;;;2.30;77.30;97984.72;4941090;29;20028;-73
2024/01/07 07:28:29;;;;;;;15.73;14.13;;;;;;;2.41;76.51;98009.88;4931435;29;20076;-73
2024/01/07 07:30:55;;;;;;;14.75;13.15;;;;;;;2.29;76.75;97993.69;4937970;29;20031;-74
2024/01/07 07:33:20;;;;;;;14.00;12.50;;;;;;;2.30;76.76;98013.94;4954992;28;20051;-74
2024/01/07 07:35:46;;;;;;;15.13;12.93;;;;;;;2.31;76.92;98010.25;4914853;29;20038;-73
2024/01/07 07:38:12;;;;;;;15.00;12.93;;;;;;;2.09;76.41;98017.50;4937570;29;20047;-73
2024/01/07 07:40:37;;;;;;;13.82;11.88;;;;;;;2.17;76.06;98035.09;4951466;29;20054;-73
2024/01/07 07:43:02;;;;;;;14.48;12.93;;;;;;;2.10;75.79;98034.28;4921887;29;20130;-73
2024/01/07 07:45:28;;;;;;;19.92;15.98;;;;;;;1.97;75.92;98023.53;4941897;29;20070;-73
2024/01/07 07:47:53;;;;;;;27.50;20.60;;;;;;;2.05;76.01;98048.09;4954767;29;20042;-73
2024/01/07 07:50:18;;;;;;;29.73;21.60;;;;;;;2.06;76.33;98048.94;4938960;29;20118;-73
2024/01/07 07:52:44;;;;;;;21.90;17.35;;;;;;;2.08;76.11;98052.22;4957631;28;20069;-73
2024/01/07 07:55:10;;;;;;;20.85;16.88;;;;;;;1.99;75.77;98048.88;4928731;29;20023;-73
2024/01/07 07:57:35;;;;;;;25.10;19.38;;;;;;;2.02;75.90;98063.63;4929441;29;20039;-73
2024/01/07 08:00:01;;;;;;;22.98;17.55;;;;;;;1.81;76.10;98019.38;4954028;28;20027;-73
2024/01/07 08:02:27;;;;;;;26.65;21.00;;;;;;;1.89;76.38;98053.72;4951027;28;20035;-73
2024/01/07 08:04:52;;;;;;;20.55;17.55;;;;;;;1.74;76.53;98038.91;4932639;29;20086;-73
2024/01/07 08:07:18;;;;;;;21.05;18.45;;;;;;;1.77;77.34;98059.75;4953167;29;20039;-73
2024/01/07 08:09:43;;;;;;;20.02;16.98;;;;;;;1.71;76.93;98065.81;4936646;29;20019;-73
2024/01/07 08:12:10;;;;;;;19.60;15.88;;;;;;;1.58;77.11;98052.44;4953355;29;20039;-73
2024/01/07 08:14:35;;;;;;;23.38;18.55;;;;;;;1.31;77.20;98017.72;4938913;28;20074;-73
2024/01/07 08:17:01;;;;;;;23.10;19.20;;;;;;;1.67;77.94;98075.19;4941476;28;20031;-73
2024/01/07 08:19:26;;;;;;;20.52;17.30;;;;;;;1.60;78.03;98095.53;4950250;29;20047;-73
2024/01/07 08:21:52;;;;;;;20.58;16.90;;;;;;;1.53;77.64;98103.44;4955149;28;20097;-73
2024/01/07 08:24:18;;;;;;;21.65;17.80;;;;;;;1.37;77.88;98091.25;4950186;28;20019;-73
2024/01/07 08:26:43;;;;;;;21.85;18.25;;;;;;;1.33;77.87;98100.56;4915802;29;20035;-73
2024/01/07 08:29:08;;;;;;;20.65;17.20;;;;;;;1.36;77.80;98099.38;4949362;28;20921;-73
2024/01/07 08:31:34;;;;;;;22.20;19.15;;;;;;;1.39;78.75;98104.31;4919563;29;20035;-73
2024/01/07 08:33:59;;;;;;;21.80;18.95;;;;;;;1.18;78.52;98075.94;4943525;29;20171;-73
2024/01/07 08:36:25;;;;;;;22.75;19.23;;;;;;;1.14;78.42;98095.06;4948479;29;20027;-73
2024/01/07 08:38:50;;;;;;;22.83;19.83;;;;;;;1.27;78.65;98105.81;4952670;29;20037;-74
2024/01/07 08:41:16;;;;;;;23.30;20.00;;;;;;;1.18;79.08;98097.16;4936691;29;20483;-73
2024/01/07 08:43:41;;;;;;;23.05;20.55;;;;;;;1.27;78.58;98111.94;4953902;29;20058;-73
2024/01/07 08:46:07;;;;;;;21.58;18.75;;;;;;;1.23;79.59;98129.25;4928388;29;20040;-72
2024/01/07 08:48:32;;;;;;;28.52;21.70;;;;;;;1.26;78.18;98130.72;4937070;29;20027;-74
2024/01/07 08:50:58;;;;;;;26.80;20.75;;;;;;;1.19;78.73;98125.31;4936764;29;20034;-73
2024/01/07 08:53:23;;;;;;;20.95;18.13;;;;;;;1.19;78.49;98135.91;4948887;28;20031;-73
2024/01/07 08:55:49;;;;;;;22.45;18.60;;;;;;;1.16;78.94;98138.13;4951483;29;20047;-74
2024/01/07 08:58:17;;;;;;;21.00;18.13;;;;;;;1.17;79.17;98137.94;4949384;28;20028;-73
2024/01/07 09:00:43;;;;;;;21.38;17.88;;;;;;;1.07;78.05;98121.53;4925362;29;20412;-73
2024/01/07 09:03:08;;;;;;;20.55;18.30;;;;;;;1.17;78.99;98140.59;4929714;28;20027;-73
2024/01/07 09:05:34;;;;;;;21.05;18.08;;;;;;;1.19;79.03;98151.81;4949226;29;20046;-74
2024/01/07 09:08:00;;;;;;;23.27;18.85;;;;;;;1.19;78.63;98154.47;4949775;29;20111;-71
2024/01/07 09:10:26;;;;;;;23.73;20.38;;;;;;;1.07;78.03;98126.81;4946635;29;20035;-76
2024/01/07 09:12:53;;;;;;;22.42;19.85;;;;;;;1.22;78.90;98154.13;4930779;29;20506;-75
2024/01/07 09:15:19;;;;;;;22.95;19.00;;;;;;;1.18;78.56;98157.34;4925264;29;20059;-73
2024/01/07 09:17:45;;;;;;;22.27;19.23;;;;;;;1.11;79.01;98164.38;4932845;29;20041;-73
2024/01/07 09:20:10;;;;;;;23.13;19.23;;;;;;;0.96;78.70;98135.22;4926543;29;20031;-75
2024/01/07 09:22:36;;;;;;;21.52;19.08;;;;;;;1.17;78.28;98175.06;4950672;29;20069;-77
2024/01/07 09:25:06;;;;;;;24.08;19.77;;;;;;;1.06;78.39;98172.06;4934356;29;20039;-74
2024/01/07 09:27:32;;;;;;;24.48;20.60;;;;;;;0.88;78.66;98148.59;4958158;28;20119;-75
2024/01/07 09:29:58;;;;;;;23.25;19.85;;;;;;;1.03;78.23;98167.13;4918682;29;20027;-75
2024/01/07 09:32:23;;;;;;;24.38;19.83;;;;;;;1.01;78.95;98169.97;4918542;29;20038;-72
2024/01/07 09:34:49;;;;;;;23.38;19.98;;;;;;;0.78;78.65;98142.75;4928803;29;20110;-74
2024/01/07 09:37:14;;;;;;;22.27;19.02;;;;;;;1.00;78.40;98173.66;4934146;29;20424;-75
2024/01/07 09:39:40;;;;;;;23.27;19.33;;;;;;;0.89;78.03;98174.09;4935156;29;20059;-75
2024/01/07 09:42:12;;;;;;;23.00;18.95;;;;;;;0.97;77.95;98173.19;4933321;29;20476;-75
2024/01/07 09:44:38;;;;;;;23.08;18.95;;;;;;;0.74;78.54;98141.50;4924858;29;20038;-74
2024/01/07 09:47:05;;;;;;;24.02;19.45;;;;;;;0.87;78.30;98146.13;4934177;29;20031;-75
2024/01/07 09:49:31;;;;;;;23.27;19.05;;;;;;;0.92;78.61;98176.38;4930362;29;20035;-75
2024/01/07 09:52:00;;;;;;;24.85;19.67;;;;;;;0.88;78.56;98163.69;4943721;29;20030;-74
2024/01/07 09:54:26;;;;;;;20.92;18.55;;;;;;;0.87;78.09;98160.19;4935781;29;20043;-74
2024/01/07 09:57:00;;;;;;;21.77;18.85;;;;;;;0.99;78.00;98181.75;4951028;29;20531;-74
2024/01/07 09:59:30;;;;;;;22.92;19.30;;;;;;;0.65;77.95;98132.78;4924759;29;20412;-74
2024/01/07 10:01:56;;;;;;;22.73;18.48;;;;;;;0.95;77.43;98181.31;4927479;29;20152;-74
2024/01/07 10:04:25;;;;;;;21.83;18.38;;;;;;;1.03;77.37;98191.00;4952497;28;20410;-74
2024/01/07 10:06:52;;;;;;;22.60;17.88;;;;;;;1.07;77.45;98189.63;4924242;29;20095;-75
2024/01/07 10:09:18;;;;;;;20.10;17.88;;;;;;;1.05;78.03;98192.44;4935961;29;20693;-75
2024/01/07 10:11:44;;;;;;;20.60;18.17;;;;;;;1.19;76.53;98191.59;4920055;29;20627;-74
2024/01/07 10:14:10;;;;;;;21.98;17.40;;;;;;;1.01;77.28;98156.72;4935491;29;20104;-74
2024/01/07 10:16:35;;;;;;;20.13;17.02;;;;;;;1.20;76.48;98190.63;4938887;29;20406;-75
2024/01/07 10:19:00;;;;;;;23.65;19.33;;;;;;;1.15;76.48;98195.66;4939568;29;20074;-75
2024/01/07 10:21:26;;;;;;;21.08;17.58;;;;;;;1.21;76.17;98202.84;4939485;29;20118;-74
2024/01/07 10:24:07;;;;;;;18.45;15.60;;;;;;;1.03;76.69;98189.16;4930699;29;20114;-75
2024/01/07 10:26:32;;;;;;;20.00;17.73;;;;;;;1.09;76.78;98180.50;4935973;29;20061;-75
2024/01/07 10:28:58;;;;;;;18.92;15.82;;;;;;;1.03;76.65;98199.78;4922996;29;20090;-75
2024/01/07 10:31:23;;;;;;;19.77;17.27;;;;;;;0.88;75.72;98176.94;4950844;29;20035;-74
2024/01/07 10:33:49;;;;;;;18.75;15.98;;;;;;;0.92;76.56;98202.91;4954901;29;20086;-75
2024/01/07 10:36:16;;;;;;;20.67;15.55;;;;;;;0.91;75.98;98190.63;4950972;29;20023;-74
2024/01/07 10:38:42;;;;;;;19.65;16.65;;;;;;;0.93;77.12;98214.31;4921166;29;20090;-75
2024/01/07 10:41:09;;;;;;;18.92;15.98;;;;;;;0.85;76.68;98190.53;4924071;29;20050;-75
2024/01/07 10:43:36;;;;;;;17.63;15.68;;;;;;;0.99;76.53;98225.00;4938755;29;20027;-74
2024/01/07 10:46:03;;;;;;;20.23;15.25;;;;;;;0.83;76.10;98219.91;4931337;29;20035;-75
2024/01/07 10:48:32;;;;;;;15.93;13.98;;;;;;;0.69;76.28;98215.41;4934127;29;20118;-75
2024/01/07 10:50:59;;;;;;;19.88;14.07;;;;;;;0.61;76.84;98216.31;4936541;29;20419;-75
2024/01/07 10:53:27;;;;;;;15.90;13.45;;;;;;;0.54;76.75;98210.09;4935462;29;20391;-75
2024/01/07 10:56:03;;;;;;;15.85;13.25;;;;;;;0.72;76.51;98228.31;4922806;29;20035;-75
2024/01/07 10:58:33;;;;;;;16.88;13.07;;;;;;;0.63;76.45;98213.50;4938810;29;20090;-75
2024/01/07 11:01:02;;;;;;;18.27;14.18;;;;;;;0.76;76.51;98226.94;4928591;29;20027;-74
2024/01/07 11:03:35;;;;;;;17.10;13.73;;;;;;;0.81;76.44;98229.84;4930930;29;20033;-75
2024/01/07 11:06:07;;;;;;;16.10;13.63;;;;;;;0.75;76.14;98214.66;4938253;29;20122;-75
2024/01/07 11:08:56;;;;;;;15.00;12.85;;;;;;;0.73;76.51;98229.09;4946091;29;20731;-75
2024/01/07 11:11:35;;;;;;;13.88;12.02;;;;;;;0.72;75.20;98216.88;4935536;29;20483;-75
2024/01/07 11:14:02;;;;;;;16.80;12.85;;;;;;;0.70;75.98;98209.13;4923329;29;20046;-75
2024/01/07 11:16:46;;;;;;;15.05;13.05;;;;;;;0.72;75.65;98233.59;4938021;29;20030;-75
2024/01/07 11:19:14;;;;;;;14.57;11.80;;;;;;;0.76;74.87;98240.19;4937047;29;20031;-75
2024/01/07 11:21:40;;;;;;;15.23;12.93;;;;;;;0.45;75.25;98187.34;4934983;29;20027;-74